sensor_id;sensor_type;location;lat;lon;timestamp;P1;durP1;ratioP1;P2;durP2;ratioP2
67049;SDS011;53955;52.442;13.284;2023-02-01T00:02:26;7.67;;;2.70;;
67049;SDS011;53955;52.442;13.284;2023-02-01T00:04:52;15.87;;;2.70;;
67049;SDS011;53955;52.442;13.284;2023-02-01T00:07:19;13.67;;;2.57;;
67049;SDS011;53955;52.442;13.284;2023-02-01T00:09:45;17.10;;;3.30;;
67049;SDS011;53955;52.442;13.284;2023-02-01T00:12:12;16.93;;;2.80;;
67049;SDS011;53955;52.442;13.284;2023-02-01T00:14:38;16.40;;;3.13;;
67049;SDS011;53955;52.442;13.284;2023-02-01T00:17:06;16.73;;;3.23;;
67049;SDS011;53955;52.442;13.284;2023-02-01T00:19:35;16.10;;;2.53;;
67049;SDS011;53955;52.442;13.284;2023-02-01T00:22:02;9.33;;;2.57;;
67049;SDS011;53955;52.442;13.284;2023-02-01T00:24:29;9.63;;;2.47;;
67049;SDS011;53955;52.442;13.284;2023-02-01T00:26:55;13.07;;;2.50;;
67049;SDS011;53955;52.442;13.284;2023-02-01T00:29:22;11.30;;;2.80;;
67049;SDS011;53955;52.442;13.284;2023-02-01T00:31:49;15.50;;;3.30;;
67049;SDS011;53955;52.442;13.284;2023-02-01T00:34:18;11.30;;;2.30;;
67049;SDS011;53955;52.442;13.284;2023-02-01T00:36:45;6.70;;;2.40;;
67049;SDS011;53955;52.442;13.284;2023-02-01T00:39:12;10.30;;;2.30;;
67049;SDS011;53955;52.442;13.284;2023-02-01T00:41:39;10.43;;;2.50;;
67049;SDS011;53955;52.442;13.284;2023-02-01T00:44:06;9.70;;;2.37;;
67049;SDS011;53955;52.442;13.284;2023-02-01T00:46:32;13.80;;;2.40;;
67049;SDS011;53955;52.442;13.284;2023-02-01T00:48:59;12.27;;;2.83;;
67049;SDS011;53955;52.442;13.284;2023-02-01T00:51:28;11.17;;;2.73;;
67049;SDS011;53955;52.442;13.284;2023-02-01T00:53:55;16.10;;;2.53;;
67049;SDS011;53955;52.442;13.284;2023-02-01T00:56:22;9.00;;;2.23;;
67049;SDS011;53955;52.442;13.284;2023-02-01T00:58:49;11.43;;;2.23;;
67049;SDS011;53955;52.442;13.284;2023-02-01T01:01:17;9.73;;;2.40;;
67049;SDS011;53955;52.442;13.284;2023-02-01T01:03:45;10.77;;;3.00;;
67049;SDS011;53955;52.442;13.284;2023-02-01T01:06:15;9.10;;;2.40;;
67049;SDS011;53955;52.442;13.284;2023-02-01T01:08:45;10.30;;;2.40;;
67049;SDS011;53955;52.442;13.284;2023-02-01T01:11:13;10.00;;;2.13;;
67049;SDS011;53955;52.442;13.284;2023-02-01T01:13:41;11.03;;;2.40;;
67049;SDS011;53955;52.442;13.284;2023-02-01T01:16:09;9.63;;;2.67;;
67049;SDS011;53955;52.442;13.284;2023-02-01T01:18:36;10.53;;;2.80;;
67049;SDS011;53955;52.442;13.284;2023-02-01T01:21:03;18.83;;;2.93;;
67049;SDS011;53955;52.442;13.284;2023-02-01T01:23:30;15.03;;;3.37;;
67049;SDS011;53955;52.442;13.284;2023-02-01T01:25:58;12.03;;;2.60;;
67049;SDS011;53955;52.442;13.284;2023-02-01T01:28:25;10.23;;;3.23;;
67049;SDS011;53955;52.442;13.284;2023-02-01T01:30:51;9.63;;;2.57;;
67049;SDS011;53955;52.442;13.284;2023-02-01T01:33:18;12.50;;;2.43;;
67049;SDS011;53955;52.442;13.284;2023-02-01T01:35:45;10.67;;;2.77;;
67049;SDS011;53955;52.442;13.284;2023-02-01T01:38:11;11.07;;;2.97;;
67049;SDS011;53955;52.442;13.284;2023-02-01T01:40:38;8.70;;;2.30;;
67049;SDS011;53955;52.442;13.284;2023-02-01T01:43:10;12.10;;;2.03;;
67049;SDS011;53955;52.442;13.284;2023-02-01T01:45:39;16.83;;;2.70;;
67049;SDS011;53955;52.442;13.284;2023-02-01T01:48:07;12.63;;;3.00;;
67049;SDS011;53955;52.442;13.284;2023-02-01T01:50:40;8.83;;;2.40;;
67049;SDS011;53955;52.442;13.284;2023-02-01T01:53:15;8.67;;;2.13;;
67049;SDS011;53955;52.442;13.284;2023-02-01T01:55:45;9.50;;;2.70;;
67049;SDS011;53955;52.442;13.284;2023-02-01T01:58:16;10.40;;;2.43;;
67049;SDS011;53955;52.442;13.284;2023-02-01T02:00:44;10.43;;;3.00;;
67049;SDS011;53955;52.442;13.284;2023-02-01T02:03:13;11.80;;;2.53;;
67049;SDS011;53955;52.442;13.284;2023-02-01T02:05:43;10.13;;;2.37;;
67049;SDS011;53955;52.442;13.284;2023-02-01T02:08:11;12.13;;;2.57;;
67049;SDS011;53955;52.442;13.284;2023-02-01T02:10:38;13.30;;;2.70;;
67049;SDS011;53955;52.442;13.284;2023-02-01T02:13:23;10.70;;;2.53;;
67049;SDS011;53955;52.442;13.284;2023-02-01T02:15:53;13.80;;;2.63;;
67049;SDS011;53955;52.442;13.284;2023-02-01T02:18:44;10.73;;;3.00;;
67049;SDS011;53955;52.442;13.284;2023-02-01T02:21:23;11.93;;;3.27;;
67049;SDS011;53955;52.442;13.284;2023-02-01T02:24:10;14.60;;;2.40;;
67049;SDS011;53955;52.442;13.284;2023-02-01T02:27:03;13.53;;;2.97;;
67049;SDS011;53955;52.442;13.284;2023-02-01T02:29:55;9.47;;;2.23;;
67049;SDS011;53955;52.442;13.284;2023-02-01T02:32:48;12.00;;;2.63;;
67049;SDS011;53955;52.442;13.284;2023-02-01T02:35:42;12.57;;;2.40;;
67049;SDS011;53955;52.442;13.284;2023-02-01T02:38:15;13.30;;;3.20;;
67049;SDS011;53955;52.442;13.284;2023-02-01T02:40:49;17.63;;;3.20;;
67049;SDS011;53955;52.442;13.284;2023-02-01T02:43:23;8.70;;;2.77;;
67049;SDS011;53955;52.442;13.284;2023-02-01T02:46:15;13.07;;;3.27;;
67049;SDS011;53955;52.442;13.284;2023-02-01T02:49:12;15.40;;;2.50;;
67049;SDS011;53955;52.442;13.284;2023-02-01T02:51:45;13.60;;;2.27;;
67049;SDS011;53955;52.442;13.284;2023-02-01T02:54:35;12.90;;;2.63;;
67049;SDS011;53955;52.442;13.284;2023-02-01T02:57:17;11.83;;;2.50;;
67049;SDS011;53955;52.442;13.284;2023-02-01T03:00:05;14.80;;;3.43;;
67049;SDS011;53955;52.442;13.284;2023-02-01T03:02:53;12.23;;;2.60;;
67049;SDS011;53955;52.442;13.284;2023-02-01T03:05:41;10.73;;;3.03;;
67049;SDS011;53955;52.442;13.284;2023-02-01T03:08:10;13.40;;;2.63;;
67049;SDS011;53955;52.442;13.284;2023-02-01T03:10:41;12.60;;;2.30;;
67049;SDS011;53955;52.442;13.284;2023-02-01T03:13:20;13.87;;;2.57;;
67049;SDS011;53955;52.442;13.284;2023-02-01T03:15:54;17.93;;;3.33;;
67049;SDS011;53955;52.442;13.284;2023-02-01T03:18:26;11.63;;;2.23;;
67049;SDS011;53955;52.442;13.284;2023-02-01T03:21:01;15.07;;;3.60;;
67049;SDS011;53955;52.442;13.284;2023-02-01T03:23:31;13.13;;;2.33;;
67049;SDS011;53955;52.442;13.284;2023-02-01T03:26:02;16.40;;;3.43;;
67049;SDS011;53955;52.442;13.284;2023-02-01T03:28:32;12.67;;;2.70;;
67049;SDS011;53955;52.442;13.284;2023-02-01T03:31:00;16.70;;;2.53;;
67049;SDS011;53955;52.442;13.284;2023-02-01T03:33:28;11.53;;;2.57;;
67049;SDS011;53955;52.442;13.284;2023-02-01T03:35:59;13.63;;;2.40;;
67049;SDS011;53955;52.442;13.284;2023-02-01T03:38:36;17.50;;;3.00;;
67049;SDS011;53955;52.442;13.284;2023-02-01T03:41:08;16.30;;;4.23;;
67049;SDS011;53955;52.442;13.284;2023-02-01T03:43:42;12.87;;;3.00;;
67049;SDS011;53955;52.442;13.284;2023-02-01T03:46:17;11.07;;;2.70;;
67049;SDS011;53955;52.442;13.284;2023-02-01T03:48:48;12.23;;;2.77;;
67049;SDS011;53955;52.442;13.284;2023-02-01T03:51:18;13.63;;;2.70;;
67049;SDS011;53955;52.442;13.284;2023-02-01T03:53:47;19.67;;;3.00;;
67049;SDS011;53955;52.442;13.284;2023-02-01T03:56:15;12.10;;;2.67;;
67049;SDS011;53955;52.442;13.284;2023-02-01T03:58:44;14.90;;;3.07;;
67049;SDS011;53955;52.442;13.284;2023-02-01T04:01:23;19.03;;;2.80;;
67049;SDS011;53955;52.442;13.284;2023-02-01T04:03:50;11.63;;;3.00;;
67049;SDS011;53955;52.442;13.284;2023-02-01T04:06:18;14.97;;;3.60;;
67049;SDS011;53955;52.442;13.284;2023-02-01T04:08:45;12.63;;;3.13;;
67049;SDS011;53955;52.442;13.284;2023-02-01T04:11:11;12.73;;;3.37;;
67049;SDS011;53955;52.442;13.284;2023-02-01T04:13:38;13.17;;;2.70;;
67049;SDS011;53955;52.442;13.284;2023-02-01T04:16:04;14.77;;;2.80;;
67049;SDS011;53955;52.442;13.284;2023-02-01T04:18:31;16.70;;;3.50;;
67049;SDS011;53955;52.442;13.284;2023-02-01T04:20:58;13.17;;;2.73;;
67049;SDS011;53955;52.442;13.284;2023-02-01T04:23:27;13.73;;;3.33;;
67049;SDS011;53955;52.442;13.284;2023-02-01T04:25:55;9.87;;;3.37;;
67049;SDS011;53955;52.442;13.284;2023-02-01T04:28:25;16.80;;;3.63;;
67049;SDS011;53955;52.442;13.284;2023-02-01T04:30:51;17.70;;;3.70;;
67049;SDS011;53955;52.442;13.284;2023-02-01T04:33:18;9.37;;;2.50;;
67049;SDS011;53955;52.442;13.284;2023-02-01T04:35:44;16.43;;;3.87;;
67049;SDS011;53955;52.442;13.284;2023-02-01T04:38:11;11.47;;;2.80;;
67049;SDS011;53955;52.442;13.284;2023-02-01T04:40:39;16.97;;;2.70;;
67049;SDS011;53955;52.442;13.284;2023-02-01T04:43:05;12.70;;;2.90;;
67049;SDS011;53955;52.442;13.284;2023-02-01T04:45:33;18.30;;;3.13;;
67049;SDS011;53955;52.442;13.284;2023-02-01T04:47:59;8.97;;;2.77;;
67049;SDS011;53955;52.442;13.284;2023-02-01T04:50:26;12.83;;;3.50;;
67049;SDS011;53955;52.442;13.284;2023-02-01T04:52:52;14.37;;;2.97;;
67049;SDS011;53955;52.442;13.284;2023-02-01T04:55:19;11.47;;;2.87;;
67049;SDS011;53955;52.442;13.284;2023-02-01T04:57:47;11.10;;;2.57;;
67049;SDS011;53955;52.442;13.284;2023-02-01T05:00:14;13.50;;;3.30;;
67049;SDS011;53955;52.442;13.284;2023-02-01T05:02:41;14.43;;;3.03;;
67049;SDS011;53955;52.442;13.284;2023-02-01T05:05:08;16.20;;;3.60;;
67049;SDS011;53955;52.442;13.284;2023-02-01T05:07:34;15.80;;;2.90;;
67049;SDS011;53955;52.442;13.284;2023-02-01T05:10:01;15.27;;;2.77;;
67049;SDS011;53955;52.442;13.284;2023-02-01T05:12:28;18.53;;;3.97;;
67049;SDS011;53955;52.442;13.284;2023-02-01T05:15:14;10.57;;;2.70;;
67049;SDS011;53955;52.442;13.284;2023-02-01T05:17:41;12.67;;;2.83;;
67049;SDS011;53955;52.442;13.284;2023-02-01T05:20:08;12.50;;;3.27;;
67049;SDS011;53955;52.442;13.284;2023-02-01T05:22:35;9.20;;;2.50;;
67049;SDS011;53955;52.442;13.284;2023-02-01T05:25:02;12.93;;;3.63;;
67049;SDS011;53955;52.442;13.284;2023-02-01T05:27:29;9.10;;;2.80;;
67049;SDS011;53955;52.442;13.284;2023-02-01T05:29:55;10.13;;;2.80;;
67049;SDS011;53955;52.442;13.284;2023-02-01T05:32:23;17.40;;;3.17;;
67049;SDS011;53955;52.442;13.284;2023-02-01T05:34:50;10.50;;;2.60;;
67049;SDS011;53955;52.442;13.284;2023-02-01T05:37:16;14.50;;;3.40;;
67049;SDS011;53955;52.442;13.284;2023-02-01T05:39:43;14.97;;;3.67;;
67049;SDS011;53955;52.442;13.284;2023-02-01T05:42:09;13.27;;;3.00;;
67049;SDS011;53955;52.442;13.284;2023-02-01T05:44:36;18.00;;;3.00;;
67049;SDS011;53955;52.442;13.284;2023-02-01T05:47:03;14.97;;;3.33;;
67049;SDS011;53955;52.442;13.284;2023-02-01T05:49:31;11.30;;;3.10;;
67049;SDS011;53955;52.442;13.284;2023-02-01T05:51:57;14.67;;;2.77;;
67049;SDS011;53955;52.442;13.284;2023-02-01T05:54:24;13.50;;;2.90;;
67049;SDS011;53955;52.442;13.284;2023-02-01T05:56:51;12.87;;;2.87;;
67049;SDS011;53955;52.442;13.284;2023-02-01T05:59:17;22.83;;;2.83;;
67049;SDS011;53955;52.442;13.284;2023-02-01T06:01:44;15.47;;;3.57;;
67049;SDS011;53955;52.442;13.284;2023-02-01T06:04:11;15.53;;;3.90;;
67049;SDS011;53955;52.442;13.284;2023-02-01T06:06:38;17.90;;;3.40;;
67049;SDS011;53955;52.442;13.284;2023-02-01T06:09:05;12.20;;;2.57;;
67049;SDS011;53955;52.442;13.284;2023-02-01T06:11:32;15.57;;;3.20;;
67049;SDS011;53955;52.442;13.284;2023-02-01T06:13:59;14.20;;;3.00;;
67049;SDS011;53955;52.442;13.284;2023-02-01T06:16:25;17.00;;;4.17;;
67049;SDS011;53955;52.442;13.284;2023-02-01T06:18:52;10.43;;;2.80;;
67049;SDS011;53955;52.442;13.284;2023-02-01T06:21:19;29.90;;;4.30;;
67049;SDS011;53955;52.442;13.284;2023-02-01T06:23:50;11.87;;;2.77;;
67049;SDS011;53955;52.442;13.284;2023-02-01T06:26:17;18.47;;;3.47;;
67049;SDS011;53955;52.442;13.284;2023-02-01T06:28:43;12.63;;;3.17;;
67049;SDS011;53955;52.442;13.284;2023-02-01T06:31:10;10.33;;;2.83;;
67049;SDS011;53955;52.442;13.284;2023-02-01T06:33:37;19.57;;;3.43;;
67049;SDS011;53955;52.442;13.284;2023-02-01T06:36:04;16.20;;;3.17;;
67049;SDS011;53955;52.442;13.284;2023-02-01T06:38:32;8.83;;;2.63;;
67049;SDS011;53955;52.442;13.284;2023-02-01T06:41:01;14.20;;;3.10;;
67049;SDS011;53955;52.442;13.284;2023-02-01T06:43:28;14.10;;;3.57;;
67049;SDS011;53955;52.442;13.284;2023-02-01T06:45:58;12.87;;;3.00;;
67049;SDS011;53955;52.442;13.284;2023-02-01T06:48:26;19.53;;;3.40;;
67049;SDS011;53955;52.442;13.284;2023-02-01T06:50:52;12.47;;;3.00;;
67049;SDS011;53955;52.442;13.284;2023-02-01T06:53:19;14.73;;;3.90;;
67049;SDS011;53955;52.442;13.284;2023-02-01T06:55:51;12.53;;;3.00;;
67049;SDS011;53955;52.442;13.284;2023-02-01T06:58:19;13.00;;;3.53;;
67049;SDS011;53955;52.442;13.284;2023-02-01T07:00:46;10.03;;;2.70;;
67049;SDS011;53955;52.442;13.284;2023-02-01T07:03:12;11.87;;;2.90;;
67049;SDS011;53955;52.442;13.284;2023-02-01T07:05:39;11.97;;;2.83;;
67049;SDS011;53955;52.442;13.284;2023-02-01T07:08:05;12.50;;;3.87;;
67049;SDS011;53955;52.442;13.284;2023-02-01T07:10:33;18.97;;;3.43;;
67049;SDS011;53955;52.442;13.284;2023-02-01T07:13:00;13.63;;;3.37;;
67049;SDS011;53955;52.442;13.284;2023-02-01T07:15:28;10.60;;;3.30;;
67049;SDS011;53955;52.442;13.284;2023-02-01T07:17:55;14.10;;;3.27;;
67049;SDS011;53955;52.442;13.284;2023-02-01T07:20:22;9.30;;;2.87;;
67049;SDS011;53955;52.442;13.284;2023-02-01T07:22:50;12.47;;;3.60;;
67049;SDS011;53955;52.442;13.284;2023-02-01T07:25:21;11.97;;;3.13;;
67049;SDS011;53955;52.442;13.284;2023-02-01T07:27:47;11.40;;;3.33;;
67049;SDS011;53955;52.442;13.284;2023-02-01T07:30:14;16.63;;;2.97;;
67049;SDS011;53955;52.442;13.284;2023-02-01T07:32:42;14.33;;;3.67;;
67049;SDS011;53955;52.442;13.284;2023-02-01T07:35:09;16.00;;;3.30;;
67049;SDS011;53955;52.442;13.284;2023-02-01T07:37:35;11.83;;;2.97;;
67049;SDS011;53955;52.442;13.284;2023-02-01T07:40:02;8.70;;;2.77;;
67049;SDS011;53955;52.442;13.284;2023-02-01T07:42:29;12.93;;;3.17;;
67049;SDS011;53955;52.442;13.284;2023-02-01T07:44:55;10.97;;;3.10;;
67049;SDS011;53955;52.442;13.284;2023-02-01T07:47:22;16.47;;;4.20;;
67049;SDS011;53955;52.442;13.284;2023-02-01T07:49:50;10.47;;;3.00;;
67049;SDS011;53955;52.442;13.284;2023-02-01T07:52:16;13.40;;;3.67;;
67049;SDS011;53955;52.442;13.284;2023-02-01T07:54:43;14.40;;;3.40;;
67049;SDS011;53955;52.442;13.284;2023-02-01T07:57:10;16.20;;;3.80;;
67049;SDS011;53955;52.442;13.284;2023-02-01T07:59:38;16.03;;;3.40;;
67049;SDS011;53955;52.442;13.284;2023-02-01T08:02:25;12.70;;;3.10;;
67049;SDS011;53955;52.442;13.284;2023-02-01T08:04:51;15.50;;;3.17;;
67049;SDS011;53955;52.442;13.284;2023-02-01T08:07:18;7.97;;;3.17;;
67049;SDS011;53955;52.442;13.284;2023-02-01T08:09:45;6.90;;;3.10;;
67049;SDS011;53955;52.442;13.284;2023-02-01T08:12:11;8.00;;;2.70;;
67049;SDS011;53955;52.442;13.284;2023-02-01T08:14:38;7.43;;;3.27;;
67049;SDS011;53955;52.442;13.284;2023-02-01T08:17:05;10.70;;;2.87;;
67049;SDS011;53955;52.442;13.284;2023-02-01T08:19:32;9.13;;;2.60;;
67049;SDS011;53955;52.442;13.284;2023-02-01T08:22:00;10.47;;;3.33;;
67049;SDS011;53955;52.442;13.284;2023-02-01T08:24:31;8.83;;;3.03;;
67049;SDS011;53955;52.442;13.284;2023-02-01T08:26:58;11.37;;;3.50;;
67049;SDS011;53955;52.442;13.284;2023-02-01T08:29:26;5.97;;;3.20;;
67049;SDS011;53955;52.442;13.284;2023-02-01T08:31:52;11.43;;;3.20;;
67049;SDS011;53955;52.442;13.284;2023-02-01T08:34:20;11.00;;;4.23;;
67049;SDS011;53955;52.442;13.284;2023-02-01T08:36:46;9.63;;;3.67;;
67049;SDS011;53955;52.442;13.284;2023-02-01T08:39:14;8.57;;;3.50;;
67049;SDS011;53955;52.442;13.284;2023-02-01T08:41:41;14.57;;;3.50;;
67049;SDS011;53955;52.442;13.284;2023-02-01T08:44:28;9.23;;;3.50;;
67049;SDS011;53955;52.442;13.284;2023-02-01T08:46:54;7.97;;;3.30;;
67049;SDS011;53955;52.442;13.284;2023-02-01T08:49:21;7.10;;;2.77;;
67049;SDS011;53955;52.442;13.284;2023-02-01T08:51:47;9.10;;;2.83;;
67049;SDS011;53955;52.442;13.284;2023-02-01T08:54:15;8.77;;;2.40;;
67049;SDS011;53955;52.442;13.284;2023-02-01T08:56:42;5.87;;;2.20;;
67049;SDS011;53955;52.442;13.284;2023-02-01T08:59:08;6.73;;;2.17;;
67049;SDS011;53955;52.442;13.284;2023-02-01T09:01:35;5.17;;;2.30;;
67049;SDS011;53955;52.442;13.284;2023-02-01T09:04:01;5.57;;;2.00;;
67049;SDS011;53955;52.442;13.284;2023-02-01T09:06:28;7.00;;;2.20;;
67049;SDS011;53955;52.442;13.284;2023-02-01T09:08:55;3.93;;;1.80;;
67049;SDS011;53955;52.442;13.284;2023-02-01T09:11:23;4.33;;;2.07;;
67049;SDS011;53955;52.442;13.284;2023-02-01T09:13:50;4.97;;;2.30;;
67049;SDS011;53955;52.442;13.284;2023-02-01T09:16:17;3.97;;;1.90;;
67049;SDS011;53955;52.442;13.284;2023-02-01T09:18:43;5.03;;;1.73;;
67049;SDS011;53955;52.442;13.284;2023-02-01T09:21:10;8.00;;;1.80;;
67049;SDS011;53955;52.442;13.284;2023-02-01T09:23:37;3.67;;;1.70;;
67049;SDS011;53955;52.442;13.284;2023-02-01T09:26:04;4.50;;;1.93;;
67049;SDS011;53955;52.442;13.284;2023-02-01T09:28:33;2.87;;;1.80;;
67049;SDS011;53955;52.442;13.284;2023-02-01T09:30:59;5.83;;;1.60;;
67049;SDS011;53955;52.442;13.284;2023-02-01T09:33:27;4.10;;;2.17;;
67049;SDS011;53955;52.442;13.284;2023-02-01T09:35:55;5.13;;;1.60;;
67049;SDS011;53955;52.442;13.284;2023-02-01T09:38:22;4.00;;;1.80;;
67049;SDS011;53955;52.442;13.284;2023-02-01T09:40:50;3.00;;;1.87;;
67049;SDS011;53955;52.442;13.284;2023-02-01T09:43:19;6.00;;;1.80;;
67049;SDS011;53955;52.442;13.284;2023-02-01T09:45:59;7.23;;;2.17;;
67049;SDS011;53955;52.442;13.284;2023-02-01T09:48:33;2.40;;;1.90;;
67049;SDS011;53955;52.442;13.284;2023-02-01T09:51:04;2.27;;;1.73;;
67049;SDS011;53955;52.442;13.284;2023-02-01T09:53:38;3.00;;;1.73;;
67049;SDS011;53955;52.442;13.284;2023-02-01T09:56:10;5.03;;;2.00;;
67049;SDS011;53955;52.442;13.284;2023-02-01T09:58:41;2.63;;;1.80;;
67049;SDS011;53955;52.442;13.284;2023-02-01T10:01:13;4.00;;;1.93;;
67049;SDS011;53955;52.442;13.284;2023-02-01T10:03:42;4.27;;;1.73;;
67049;SDS011;53955;52.442;13.284;2023-02-01T10:06:13;2.40;;;1.33;;
67049;SDS011;53955;52.442;13.284;2023-02-01T10:08:57;5.43;;;2.23;;
67049;SDS011;53955;52.442;13.284;2023-02-01T10:11:36;3.27;;;1.97;;
67049;SDS011;53955;52.442;13.284;2023-02-01T10:14:29;4.47;;;1.97;;
67049;SDS011;53955;52.442;13.284;2023-02-01T10:17:15;3.53;;;1.70;;
67049;SDS011;53955;52.442;13.284;2023-02-01T10:19:54;5.43;;;1.67;;
67049;SDS011;53955;52.442;13.284;2023-02-01T10:22:33;2.90;;;1.50;;
67049;SDS011;53955;52.442;13.284;2023-02-01T10:25:07;6.87;;;1.63;;
67049;SDS011;53955;52.442;13.284;2023-02-01T10:27:40;2.50;;;1.40;;
67049;SDS011;53955;52.442;13.284;2023-02-01T10:30:13;2.53;;;1.73;;
67049;SDS011;53955;52.442;13.284;2023-02-01T10:32:45;3.70;;;1.97;;
67049;SDS011;53955;52.442;13.284;2023-02-01T10:35:15;3.70;;;1.70;;
67049;SDS011;53955;52.442;13.284;2023-02-01T10:37:44;7.53;;;1.53;;
67049;SDS011;53955;52.442;13.284;2023-02-01T10:40:15;2.90;;;1.60;;
67049;SDS011;53955;52.442;13.284;2023-02-01T10:42:44;3.80;;;1.60;;
67049;SDS011;53955;52.442;13.284;2023-02-01T10:45:13;4.50;;;1.60;;
67049;SDS011;53955;52.442;13.284;2023-02-01T10:47:43;3.90;;;1.80;;
67049;SDS011;53955;52.442;13.284;2023-02-01T10:50:15;3.80;;;1.47;;
67049;SDS011;53955;52.442;13.284;2023-02-01T10:52:46;4.60;;;1.63;;
67049;SDS011;53955;52.442;13.284;2023-02-01T10:58:15;8.17;;;1.80;;
67049;SDS011;53955;52.442;13.284;2023-02-01T11:00:43;3.97;;;1.57;;
67049;SDS011;53955;52.442;13.284;2023-02-01T11:06:11;5.50;;;1.60;;
67049;SDS011;53955;52.442;13.284;2023-02-01T11:08:46;3.67;;;1.80;;
67049;SDS011;53955;52.442;13.284;2023-02-01T11:11:14;4.93;;;1.80;;
67049;SDS011;53955;52.442;13.284;2023-02-01T11:13:41;3.33;;;1.87;;
67049;SDS011;53955;52.442;13.284;2023-02-01T11:16:11;4.07;;;1.90;;
67049;SDS011;53955;52.442;13.284;2023-02-01T11:18:41;6.70;;;1.90;;
67049;SDS011;53955;52.442;13.284;2023-02-01T11:23:39;5.23;;;2.20;;
67049;SDS011;53955;52.442;13.284;2023-02-01T11:26:09;6.60;;;1.97;;
67049;SDS011;53955;52.442;13.284;2023-02-01T11:28:38;7.30;;;2.20;;
67049;SDS011;53955;52.442;13.284;2023-02-01T11:31:08;5.90;;;2.20;;
67049;SDS011;53955;52.442;13.284;2023-02-01T11:36:08;12.07;;;2.37;;
67049;SDS011;53955;52.442;13.284;2023-02-01T11:38:36;7.77;;;2.53;;
67049;SDS011;53955;52.442;13.284;2023-02-01T11:41:10;7.03;;;1.90;;
67049;SDS011;53955;52.442;13.284;2023-02-01T11:43:49;5.93;;;2.37;;
67049;SDS011;53955;52.442;13.284;2023-02-01T11:56:32;3.87;;;1.63;;
67049;SDS011;53955;52.442;13.284;2023-02-01T11:59:05;4.80;;;1.80;;
67049;SDS011;53955;52.442;13.284;2023-02-01T12:01:45;6.00;;;1.60;;
67049;SDS011;53955;52.442;13.284;2023-02-01T12:04:35;6.80;;;2.70;;
67049;SDS011;53955;52.442;13.284;2023-02-01T12:07:19;7.60;;;1.83;;
67049;SDS011;53955;52.442;13.284;2023-02-01T12:09:54;11.30;;;2.33;;
67049;SDS011;53955;52.442;13.284;2023-02-01T12:12:30;6.53;;;2.13;;
67049;SDS011;53955;52.442;13.284;2023-02-01T12:15:15;8.30;;;1.97;;
67049;SDS011;53955;52.442;13.284;2023-02-01T12:17:57;3.30;;;1.90;;
67049;SDS011;53955;52.442;13.284;2023-02-01T12:20:56;9.00;;;2.23;;
67049;SDS011;53955;52.442;13.284;2023-02-01T12:23:37;8.83;;;2.57;;
67049;SDS011;53955;52.442;13.284;2023-02-01T12:29:16;4.80;;;1.77;;
67049;SDS011;53955;52.442;13.284;2023-02-01T12:31:55;8.77;;;2.20;;
67049;SDS011;53955;52.442;13.284;2023-02-01T12:34:43;7.83;;;2.47;;
67049;SDS011;53955;52.442;13.284;2023-02-01T12:37:31;8.67;;;2.33;;
67049;SDS011;53955;52.442;13.284;2023-02-01T12:40:14;8.73;;;2.10;;
67049;SDS011;53955;52.442;13.284;2023-02-01T12:42:48;5.23;;;1.80;;
67049;SDS011;53955;52.442;13.284;2023-02-01T12:45:25;11.27;;;2.57;;
67049;SDS011;53955;52.442;13.284;2023-02-01T12:47:57;4.17;;;2.10;;
67049;SDS011;53955;52.442;13.284;2023-02-01T12:50:32;3.20;;;1.63;;
67049;SDS011;53955;52.442;13.284;2023-02-01T12:53:06;6.80;;;2.17;;
67049;SDS011;53955;52.442;13.284;2023-02-01T12:55:41;6.73;;;1.80;;
67049;SDS011;53955;52.442;13.284;2023-02-01T12:58:14;6.03;;;1.83;;
67049;SDS011;53955;52.442;13.284;2023-02-01T13:00:44;7.77;;;2.00;;
67049;SDS011;53955;52.442;13.284;2023-02-01T13:03:18;10.53;;;1.83;;
67049;SDS011;53955;52.442;13.284;2023-02-01T13:05:56;5.37;;;1.80;;
67049;SDS011;53955;52.442;13.284;2023-02-01T13:08:35;7.20;;;2.07;;
67049;SDS011;53955;52.442;13.284;2023-02-01T13:11:09;4.30;;;1.63;;
67049;SDS011;53955;52.442;13.284;2023-02-01T13:13:42;5.63;;;1.67;;
67049;SDS011;53955;52.442;13.284;2023-02-01T13:16:14;7.83;;;1.80;;
67049;SDS011;53955;52.442;13.284;2023-02-01T13:18:47;5.50;;;2.13;;
67049;SDS011;53955;52.442;13.284;2023-02-01T13:21:18;6.47;;;2.10;;
67049;SDS011;53955;52.442;13.284;2023-02-01T13:23:49;4.53;;;1.90;;
67049;SDS011;53955;52.442;13.284;2023-02-01T13:26:18;4.63;;;1.63;;
67049;SDS011;53955;52.442;13.284;2023-02-01T13:28:45;7.70;;;2.10;;
67049;SDS011;53955;52.442;13.284;2023-02-01T13:31:22;4.30;;;2.17;;
67049;SDS011;53955;52.442;13.284;2023-02-01T13:34:06;7.87;;;1.87;;
67049;SDS011;53955;52.442;13.284;2023-02-01T13:37:02;8.97;;;2.10;;
67049;SDS011;53955;52.442;13.284;2023-02-01T13:39:51;4.93;;;2.00;;
67049;SDS011;53955;52.442;13.284;2023-02-01T13:42:37;7.30;;;2.00;;
67049;SDS011;53955;52.442;13.284;2023-02-01T13:45:13;4.37;;;2.10;;
67049;SDS011;53955;52.442;13.284;2023-02-01T13:47:43;7.07;;;2.30;;
67049;SDS011;53955;52.442;13.284;2023-02-01T13:50:13;4.67;;;2.30;;
67049;SDS011;53955;52.442;13.284;2023-02-01T13:52:51;8.73;;;2.90;;
67049;SDS011;53955;52.442;13.284;2023-02-01T13:55:24;4.63;;;1.90;;
67049;SDS011;53955;52.442;13.284;2023-02-01T13:58:01;6.00;;;2.07;;
67049;SDS011;53955;52.442;13.284;2023-02-01T14:00:41;9.07;;;2.90;;
67049;SDS011;53955;52.442;13.284;2023-02-01T14:03:12;9.77;;;2.40;;
67049;SDS011;53955;52.442;13.284;2023-02-01T14:05:55;6.13;;;1.93;;
67049;SDS011;53955;52.442;13.284;2023-02-01T14:08:41;10.63;;;2.50;;
67049;SDS011;53955;52.442;13.284;2023-02-01T14:14:36;6.93;;;2.20;;
67049;SDS011;53955;52.442;13.284;2023-02-01T14:23:20;9.50;;;2.70;;
67049;SDS011;53955;52.442;13.284;2023-02-01T14:26:00;6.03;;;2.50;;
67049;SDS011;53955;52.442;13.284;2023-02-01T14:28:50;9.00;;;2.57;;
67049;SDS011;53955;52.442;13.284;2023-02-01T14:31:33;11.53;;;2.40;;
67049;SDS011;53955;52.442;13.284;2023-02-01T14:34:12;7.33;;;2.80;;
67049;SDS011;53955;52.442;13.284;2023-02-01T14:36:50;6.23;;;2.23;;
67049;SDS011;53955;52.442;13.284;2023-02-01T14:39:19;8.17;;;2.63;;
67049;SDS011;53955;52.442;13.284;2023-02-01T14:41:51;10.37;;;2.87;;
67049;SDS011;53955;52.442;13.284;2023-02-01T14:44:28;8.33;;;2.80;;
67049;SDS011;53955;52.442;13.284;2023-02-01T14:50:00;7.07;;;2.67;;
67049;SDS011;53955;52.442;13.284;2023-02-01T14:52:43;9.07;;;2.40;;
67049;SDS011;53955;52.442;13.284;2023-02-01T14:55:13;10.20;;;2.30;;
67049;SDS011;53955;52.442;13.284;2023-02-01T14:57:45;9.23;;;2.77;;
67049;SDS011;53955;52.442;13.284;2023-02-01T15:12:44;4.30;;;1.80;;
67049;SDS011;53955;52.442;13.284;2023-02-01T15:22:52;4.40;;;2.10;;
67049;SDS011;53955;52.442;13.284;2023-02-01T15:25:21;4.70;;;1.80;;
67049;SDS011;53955;52.442;13.284;2023-02-01T15:27:49;10.60;;;2.53;;
67049;SDS011;53955;52.442;13.284;2023-02-01T15:30:17;6.47;;;2.07;;
67049;SDS011;53955;52.442;13.284;2023-02-01T15:32:45;7.07;;;2.30;;
67049;SDS011;53955;52.442;13.284;2023-02-01T15:41:09;5.90;;;2.00;;
67049;SDS011;53955;52.442;13.284;2023-02-01T15:43:39;4.63;;;1.83;;
67049;SDS011;53955;52.442;13.284;2023-02-01T15:46:09;4.93;;;2.00;;
67049;SDS011;53955;52.442;13.284;2023-02-01T15:48:45;7.47;;;2.03;;
67049;SDS011;53955;52.442;13.284;2023-02-01T15:51:15;6.93;;;2.13;;
67049;SDS011;53955;52.442;13.284;2023-02-01T15:53:46;4.37;;;1.60;;
67049;SDS011;53955;52.442;13.284;2023-02-01T15:56:15;3.57;;;1.97;;